createdAt,value
2018-12-18T00:00:14.362Z,70.75
2018-12-18T01:02:20.777Z,68.46
2018-12-18T01:07:24.104Z,68.42
2018-12-18T01:12:27.428Z,68.46
2018-12-18T01:17:30.755Z,68.44
2018-12-18T01:22:34.096Z,68.45
2018-12-18T01:27:38.185Z,68.33
2018-12-18T02:30:30.051Z,67.74
2018-12-18T02:35:34.153Z,67.61
2018-12-18T02:40:37.482Z,67.84
2018-12-18T02:45:40.806Z,67.79
2018-12-18T02:50:44.899Z,67.74
2018-12-18T02:55:48.231Z,67.51
2018-12-18T04:04:15.833Z,66.85
2018-12-18T04:09:19.169Z,66.94
2018-12-18T04:14:22.504Z,67.01
2018-12-18T04:19:25.836Z,67.08
2018-12-18T04:24:29.945Z,67.10
2018-12-18T04:29:33.274Z,67.20
2018-12-18T05:31:40.341Z,67.26
2018-12-18T05:36:43.661Z,67.18
2018-12-18T05:41:47.001Z,67.41
2018-12-18T05:46:50.360Z,67.51
2018-12-18T05:51:53.681Z,67.48
2018-12-18T05:56:57.004Z,67.53
2018-12-18T07:05:21.008Z,66.14
2018-12-18T07:10:24.336Z,66.09
2018-12-18T07:15:27.653Z,65.87
2018-12-18T07:20:30.972Z,65.99
2018-12-18T07:25:34.299Z,65.69
2018-12-18T07:30:38.401Z,65.32
2018-12-18T08:32:44.069Z,63.17
2018-12-18T08:37:47.396Z,62.39
2018-12-18T08:42:51.489Z,63.29
2018-12-18T08:47:54.816Z,62.28
2018-12-18T08:52:58.141Z,62.60
2018-12-18T08:58:02.238Z,61.99
2018-12-18T10:00:31.177Z,58.49
2018-12-18T10:05:35.299Z,57.84
2018-12-18T10:10:39.397Z,57.59
2018-12-18T10:15:42.741Z,57.43
2018-12-18T10:20:46.864Z,56.50
2018-12-18T10:25:50.971Z,57.60
2018-12-18T11:34:16.814Z,55.76
2018-12-18T11:39:20.135Z,56.10
2018-12-18T11:44:23.468Z,57.03
2018-12-18T11:49:26.789Z,54.77
2018-12-18T11:54:30.108Z,55.37
2018-12-18T11:59:34.200Z,54.17
2018-12-18T13:01:42.072Z,47.38
2018-12-18T13:06:42.567Z,49.84
2018-12-18T13:11:46.659Z,48.46
2018-12-18T13:16:49.984Z,46.30
2018-12-18T13:21:53.321Z,47.98
2018-12-18T13:26:56.656Z,46.85
2018-12-18T14:35:24.728Z,44.07
2018-12-18T14:40:28.065Z,46.54
2018-12-18T14:45:31.396Z,47.21
2018-12-18T14:50:35.486Z,47.82
2018-12-18T14:55:38.811Z,48.45
2018-12-18T16:04:04.735Z,55.37
2018-12-18T16:09:08.072Z,55.45
2018-12-18T16:14:12.157Z,55.88
2018-12-18T16:19:15.487Z,56.08
2018-12-18T16:24:18.808Z,56.61
2018-12-18T16:29:22.135Z,56.90
2018-12-18T16:34:25.455Z,57.54
2018-12-18T16:39:29.545Z,58.10
2018-12-18T16:44:32.876Z,58.00
2018-12-18T16:49:36.974Z,57.93
2018-12-18T16:54:40.298Z,57.74
2018-12-18T16:59:43.639Z,57.28
2018-12-18T17:04:47.744Z,57.41
2018-12-18T17:09:51.069Z,57.01
2018-12-18T17:14:55.156Z,58.32
2018-12-18T17:19:58.476Z,58.00
2018-12-18T17:25:01.817Z,58.58
2018-12-18T17:30:14.388Z,58.60
2018-12-18T17:35:25.503Z,59.03
2018-12-18T17:40:32.642Z,58.69
2018-12-18T17:45:36.200Z,59.33
2018-12-18T17:50:39.566Z,59.54
2018-12-18T17:55:43.653Z,60.30
2018-12-18T18:00:46.985Z,60.65
2018-12-18T18:05:50.325Z,63.24
2018-12-18T18:10:53.666Z,63.34
2018-12-18T18:15:56.990Z,63.67
2018-12-18T18:21:00.326Z,64.64
2018-12-18T18:26:03.659Z,64.96
2018-12-18T18:31:07.758Z,65.50
2018-12-18T18:36:11.109Z,66.68
2018-12-18T18:41:14.438Z,64.81
2018-12-18T18:46:17.773Z,64.77
2018-12-18T18:51:21.105Z,64.79
2018-12-18T18:56:29.516Z,65.00
2018-12-18T19:01:33.775Z,64.74
2018-12-18T19:06:37.112Z,64.72
2018-12-18T19:11:40.454Z,65.36
2018-12-18T19:16:43.797Z,64.76
2018-12-18T19:21:47.149Z,64.94
2018-12-18T19:26:58.093Z,65.21
2018-12-18T19:32:14.313Z,64.77
2018-12-18T19:37:17.642Z,65.25
2018-12-18T19:42:21.740Z,64.64
2018-12-18T19:47:25.085Z,64.11
2018-12-18T19:52:28.446Z,63.74
2018-12-18T19:57:37.481Z,65.24
2018-12-18T20:02:40.809Z,64.53
2018-12-18T20:07:44.150Z,63.90
2018-12-18T20:12:47.505Z,63.76
2018-12-18T20:17:50.852Z,63.58
2018-12-18T20:22:54.204Z,64.43
2018-12-18T20:27:57.533Z,64.17
2018-12-18T20:33:01.186Z,63.84
2018-12-18T20:38:04.763Z,63.08
2018-12-18T20:43:08.103Z,63.95
2018-12-18T20:48:11.436Z,63.58
2018-12-18T20:53:14.764Z,63.85
2018-12-18T20:58:18.857Z,63.92
2018-12-18T21:03:22.189Z,63.94
2018-12-18T21:08:26.285Z,64.50
2018-12-18T21:13:29.640Z,63.85
2018-12-18T21:18:32.987Z,63.94
2018-12-18T21:23:36.312Z,64.15
2018-12-18T21:28:39.644Z,64.89
2018-12-18T21:33:42.999Z,64.69
2018-12-18T21:38:46.347Z,64.42
2018-12-18T21:43:49.674Z,64.19
2018-12-18T21:48:53.031Z,63.49
2018-12-18T21:53:56.360Z,63.39
2018-12-18T21:58:59.680Z,63.08
2018-12-18T22:04:03.025Z,63.71
2018-12-18T22:09:06.366Z,63.73
2018-12-18T22:14:09.694Z,65.16
2018-12-18T22:19:13.013Z,63.77
2018-12-18T22:24:16.335Z,64.36
2018-12-18T22:29:19.661Z,65.18
2018-12-18T22:34:23.010Z,65.39
2018-12-18T22:39:26.352Z,65.45
2018-12-18T22:44:29.705Z,65.56
2018-12-18T22:49:33.056Z,66.00
2018-12-18T22:54:36.385Z,65.82
2018-12-18T22:59:39.711Z,66.02
2018-12-18T23:30:31.439Z,64.12
2018-12-18T23:35:34.770Z,64.15
2018-12-18T23:40:38.100Z,65.00
2018-12-18T23:45:41.431Z,65.02
2018-12-18T23:50:45.593Z,65.09
2018-12-18T23:55:48.908Z,64.91
